Time;durP1;ratioP1;P1;durP2;ratioP2;P2;SDS_P1;SDS_P2;PMS_P1;PMS_P2;Temp;Humidity;BMP_temperature;BMP_pressure;BME280_temperature;BME280_humidity;BME280_pressure;Samples;Min_cycle;Max_cycle;Signal;HPM_P1;HPM_P2
2022/07/22 00:02:09;;;;;;;2.72;1.58;;;19.10;85.70;;;;;;5063920;28;20033;-84
2022/07/22 00:04:35;;;;;;;2.22;1.80;;;19.10;85.80;;;;;;5064532;28;20127;-82
2022/07/22 00:07:01;;;;;;;3.13;1.55;;;19.10;85.90;;;;;;5065541;28;20039;-82
2022/07/22 00:09:27;;;;;;;2.08;1.60;;;19.10;86.00;;;;;;5063408;28;20048;-80
2022/07/22 00:11:53;;;;;;;1.77;1.63;;;19.10;86.00;;;;;;5063487;28;20052;-83
2022/07/22 00:14:19;;;;;;;2.95;1.60;;;19.00;86.00;;;;;;5065234;28;20496;-83
2022/07/22 00:16:45;;;;;;;1.67;1.58;;;19.10;86.00;;;;;;5064312;28;20510;-83
2022/07/22 00:19:11;;;;;;;4.20;2.10;;;19.10;86.00;;;;;;5061911;28;20033;-80
2022/07/22 00:21:37;;;;;;;2.83;1.52;;;19.00;86.00;;;;;;5063927;28;20033;-84
2022/07/22 00:24:03;;;;;;;2.58;1.77;;;19.00;86.30;;;;;;5066548;28;20024;-84
2022/07/22 00:26:29;;;;;;;3.42;1.63;;;19.00;86.00;;;;;;5063592;28;20503;-83
2022/07/22 00:28:55;;;;;;;3.42;1.63;;;19.00;86.00;;;;;;5072452;28;20186;-84
2022/07/22 00:31:21;;;;;;;1.98;1.48;;;19.00;86.00;;;;;;5076256;28;20480;-82
2022/07/22 00:33:47;;;;;;;2.47;1.40;;;19.00;86.40;;;;;;5047201;28;20032;-80
2022/07/22 00:36:13;;;;;;;2.80;1.98;;;19.00;86.30;;;;;;5061101;28;20491;-82
2022/07/22 00:38:39;;;;;;;1.55;1.55;;;18.90;86.40;;;;;;5063768;28;20511;-79
2022/07/22 00:41:05;;;;;;;1.88;1.50;;;18.90;86.50;;;;;;5063786;28;20045;-82
2022/07/22 00:43:58;;;;;;;1.52;1.42;;;18.90;86.50;;;;;;5063393;28;20044;-79
2022/07/22 00:46:26;;;;;;;2.10;1.63;;;19.00;86.50;;;;;;5064334;28;20033;-83
2022/07/22 00:48:53;;;;;;;2.55;1.60;;;19.00;86.50;;;;;;5063232;28;20078;-82
2022/07/22 00:51:20;;;;;;;2.75;1.85;;;19.00;86.40;;;;;;5062312;28;20037;-83
2022/07/22 00:53:47;;;;;;;3.67;1.67;;;19.00;86.30;;;;;;5065445;28;20037;-83
2022/07/22 00:56:14;;;;;;;3.60;1.67;;;18.90;86.40;;;;;;5075960;28;20032;-82
2022/07/22 00:58:42;;;;;;;4.35;1.65;;;18.90;86.40;;;;;;5063280;28;21196;-82
2022/07/22 01:01:08;;;;;;;1.80;1.55;;;18.90;86.50;;;;;;5062806;28;20046;-83
2022/07/22 01:03:35;;;;;;;3.72;1.30;;;18.90;86.60;;;;;;5061197;28;20045;-83
2022/07/22 01:06:01;;;;;;;1.75;1.60;;;19.00;86.50;;;;;;5062664;28;20557;-78
2022/07/22 01:08:27;;;;;;;2.55;1.85;;;19.00;86.50;;;;;;5062769;28;20036;-81
2022/07/22 01:10:53;;;;;;;4.03;1.63;;;19.00;86.50;;;;;;5062671;28;20119;-82
2022/07/22 01:13:19;;;;;;;2.90;1.67;;;18.90;86.40;;;;;;5061135;28;20431;-82
2022/07/22 01:15:45;;;;;;;2.75;1.60;;;18.90;86.60;;;;;;5064939;28;20086;-83
2022/07/22 01:18:11;;;;;;;2.20;1.50;;;18.90;86.70;;;;;;5061002;28;20033;-82
2022/07/22 01:20:38;;;;;;;1.58;1.30;;;18.90;86.70;;;;;;5061187;28;20380;-82
2022/07/22 01:23:06;;;;;;;1.75;1.48;;;18.80;86.80;;;;;;5064947;28;20059;-83
2022/07/22 01:25:31;;;;;;;2.50;1.63;;;18.90;86.80;;;;;;5060378;28;20064;-84
2022/07/22 01:27:57;;;;;;;2.88;1.58;;;18.80;86.90;;;;;;5061377;28;20044;-83
2022/07/22 01:30:23;;;;;;;4.50;1.50;;;18.80;86.90;;;;;;5048616;28;20087;-82
2022/07/22 01:32:49;;;;;;;1.70;1.60;;;18.80;86.80;;;;;;5061274;28;20043;-82
2022/07/22 01:35:15;;;;;;;3.42;1.60;;;18.80;86.80;;;;;;5076057;28;20029;-83
2022/07/22 01:37:41;;;;;;;4.10;1.83;;;18.80;86.80;;;;;;5076836;28;20419;-83
2022/07/22 01:40:08;;;;;;;3.15;1.48;;;18.80;86.80;;;;;;5063311;28;20064;-82
2022/07/22 01:42:34;;;;;;;3.08;1.70;;;18.80;86.90;;;;;;5064063;28;20037;-83
2022/07/22 01:45:00;;;;;;;2.53;1.23;;;18.80;86.90;;;;;;5061435;28;20029;-85
2022/07/22 01:47:27;;;;;;;2.08;1.55;;;18.80;86.90;;;;;;5063341;28;20044;-80
2022/07/22 01:49:53;;;;;;;1.48;1.38;;;18.80;87.10;;;;;;5062850;28;20032;-80
2022/07/22 01:52:19;;;;;;;3.47;1.70;;;18.70;87.10;;;;;;5075603;28;20030;-81
2022/07/22 01:54:45;;;;;;;1.50;1.38;;;18.70;87.20;;;;;;5063828;28;20478;-80
2022/07/22 01:57:11;;;;;;;5.28;1.48;;;18.80;87.10;;;;;;5060602;28;20119;-80
2022/07/22 01:59:43;;;;;;;4.95;1.63;;;18.80;86.90;;;;;;5061772;28;20068;-80
2022/07/22 02:02:09;;;;;;;2.35;1.33;;;18.80;87.00;;;;;;5063248;28;20040;-81
2022/07/22 02:04:35;;;;;;;4.13;1.50;;;18.80;87.10;;;;;;5058919;28;20044;-81
2022/07/22 02:07:02;;;;;;;2.58;1.60;;;18.90;86.90;;;;;;5075667;28;20039;-82
2022/07/22 02:09:29;;;;;;;2.15;1.30;;;18.90;86.80;;;;;;5060744;28;20049;-78
2022/07/22 02:11:57;;;;;;;2.83;1.40;;;18.80;86.90;;;;;;5078929;28;20070;-81
2022/07/22 02:14:23;;;;;;;1.50;1.40;;;18.80;86.80;;;;;;5061015;28;20029;-81
2022/07/22 02:16:50;;;;;;;3.42;1.60;;;18.80;86.80;;;;;;5060392;28;20034;-81
2022/07/22 02:19:16;;;;;;;3.63;1.42;;;18.80;86.90;;;;;;5076347;28;20089;-80
2022/07/22 02:21:42;;;;;;;1.70;1.15;;;18.80;86.80;;;;;;5073349;28;20110;-81
2022/07/22 02:24:08;;;;;;;4.80;1.40;;;18.90;87.00;;;;;;5076049;28;21202;-80
2022/07/22 02:26:34;;;;;;;1.75;1.30;;;18.80;87.00;;;;;;5054872;28;20091;-82
2022/07/22 02:29:00;;;;;;;2.85;1.52;;;19.00;86.90;;;;;;5083382;28;20100;-83
2022/07/22 02:31:26;;;;;;;2.75;1.70;;;19.00;86.70;;;;;;5072453;28;20082;-82
2022/07/22 02:33:52;;;;;;;1.70;1.60;;;19.10;86.30;;;;;;5074390;28;20048;-79
2022/07/22 02:36:19;;;;;;;3.20;1.45;;;19.30;85.80;;;;;;5072932;28;20033;-82
2022/07/22 02:38:46;;;;;;;1.70;1.60;;;19.40;85.60;;;;;;5073048;28;20048;-81
2022/07/22 02:41:12;;;;;;;2.05;1.45;;;19.50;85.60;;;;;;5072273;28;20028;-82
2022/07/22 02:43:45;;;;;;;1.92;1.30;;;19.60;85.30;;;;;;5073505;28;20029;-82
2022/07/22 02:46:11;;;;;;;1.65;1.30;;;19.70;85.20;;;;;;5072121;28;20143;-81
2022/07/22 02:48:37;;;;;;;1.77;1.23;;;19.80;84.80;;;;;;5075822;28;20040;-82
2022/07/22 02:51:04;;;;;;;1.30;1.20;;;20.00;84.20;;;;;;5074977;28;20037;-81
2022/07/22 02:53:30;;;;;;;4.10;1.30;;;20.10;83.80;;;;;;5074812;28;20051;-80
2022/07/22 02:55:59;;;;;;;3.13;1.45;;;20.10;84.00;;;;;;5058501;28;20023;-82
2022/07/22 02:58:25;;;;;;;2.42;1.50;;;20.30;83.30;;;;;;5072971;28;20127;-81
2022/07/22 03:00:51;;;;;;;3.15;1.73;;;20.30;82.90;;;;;;5067009;28;20056;-81
2022/07/22 03:03:17;;;;;;;2.15;1.50;;;20.40;82.60;;;;;;5038199;28;20036;-79
2022/07/22 03:05:43;;;;;;;2.20;1.50;;;20.50;82.50;;;;;;5077250;28;20032;-81
2022/07/22 03:08:18;;;;;;;1.70;1.60;;;20.50;82.40;;;;;;5064353;28;20094;-82
2022/07/22 03:10:45;;;;;;;1.50;1.40;;;20.50;82.30;;;;;;5064322;28;20025;-80
2022/07/22 03:13:11;;;;;;;1.75;1.40;;;20.40;82.20;;;;;;5075430;28;20028;-81
2022/07/22 03:15:38;;;;;;;4.40;1.60;;;20.40;82.30;;;;;;5064030;28;20036;-81
2022/07/22 03:18:04;;;;;;;2.28;1.40;;;20.30;82.30;;;;;;5065722;28;20090;-81
2022/07/22 03:20:30;;;;;;;2.45;1.63;;;20.30;82.20;;;;;;5064237;28;20040;-78
2022/07/22 03:22:56;;;;;;;4.57;1.65;;;20.20;82.30;;;;;;5078222;28;20089;-82
2022/07/22 03:25:22;;;;;;;1.60;1.50;;;20.20;82.50;;;;;;5063177;28;20036;-82
2022/07/22 03:27:48;;;;;;;3.60;1.67;;;20.10;82.80;;;;;;5063199;28;20055;-79
2022/07/22 03:30:14;;;;;;;1.60;1.50;;;20.10;82.90;;;;;;5055901;28;20383;-81
2022/07/22 03:32:46;;;;;;;2.03;1.70;;;20.10;82.90;;;;;;5063988;28;22617;-80
2022/07/22 03:35:14;;;;;;;4.75;1.60;;;20.10;83.30;;;;;;5063733;28;20033;-81
2022/07/22 03:37:43;;;;;;;4.05;1.30;;;20.00;83.40;;;;;;5045766;28;20115;-82
2022/07/22 03:40:11;;;;;;;2.67;1.73;;;20.00;83.70;;;;;;5046064;28;20059;-79
2022/07/22 03:42:39;;;;;;;1.88;1.60;;;20.00;83.80;;;;;;5061137;28;20033;-83
2022/07/22 03:45:05;;;;;;;3.75;1.80;;;20.00;83.80;;;;;;5063495;28;20036;-81
2022/07/22 03:47:38;;;;;;;2.75;1.50;;;20.30;83.60;;;;;;5062476;28;20028;-83
2022/07/22 03:50:05;;;;;;;2.78;1.60;;;20.50;83.20;;;;;;5073570;28;20044;-82
2022/07/22 03:52:31;;;;;;;1.40;1.30;;;20.70;82.70;;;;;;5062882;28;20031;-80
2022/07/22 03:55:02;;;;;;;2.08;1.27;;;20.90;82.10;;;;;;5078880;28;20553;-83
2022/07/22 03:57:29;;;;;;;2.35;1.40;;;21.10;81.30;;;;;;5059207;28;20067;-83
2022/07/22 04:00:04;;;;;;;3.33;1.53;;;21.30;81.00;;;;;;5059850;28;20033;-82
2022/07/22 04:02:40;;;;;;;2.38;1.13;;;21.40;80.40;;;;;;5064269;28;20340;-82
2022/07/22 04:05:07;;;;;;;1.40;1.30;;;21.60;80.10;;;;;;5074831;28;20511;-82
2022/07/22 04:07:33;;;;;;;1.23;1.20;;;21.70;79.60;;;;;;5062538;28;20036;-82
2022/07/22 04:10:05;;;;;;;2.35;1.30;;;21.90;79.20;;;;;;5047219;28;20356;-82
2022/07/22 04:12:37;;;;;;;2.30;1.30;;;22.00;79.10;;;;;;5056597;28;20032;-82
2022/07/22 04:15:12;;;;;;;1.20;1.10;;;22.10;78.80;;;;;;5059464;28;20472;-82
2022/07/22 04:17:37;;;;;;;3.05;1.58;;;22.20;78.30;;;;;;5065119;28;20032;-82
2022/07/22 04:20:05;;;;;;;3.70;1.30;;;22.40;78.50;;;;;;5064227;28;20040;-82
2022/07/22 04:22:40;;;;;;;1.67;1.27;;;22.50;77.50;;;;;;5062410;28;20031;-83
2022/07/22 04:25:06;;;;;;;1.52;1.30;;;22.70;77.10;;;;;;5063285;28;20479;-85
2022/07/22 04:27:32;;;;;;;4.32;1.23;;;22.80;76.70;;;;;;5065491;28;20356;-84
2022/07/22 04:29:58;;;;;;;2.50;1.30;;;22.90;76.40;;;;;;5063066;28;20037;-85
2022/07/22 04:32:24;;;;;;;1.48;1.35;;;22.90;76.20;;;;;;5060315;28;20178;-84
2022/07/22 04:34:50;;;;;;;1.27;1.10;;;23.10;75.80;;;;;;5064421;28;20028;-83
2022/07/22 04:37:17;;;;;;;1.30;1.20;;;23.30;74.80;;;;;;5079747;28;20029;-81
2022/07/22 04:39:42;;;;;;;2.67;1.40;;;23.40;74.40;;;;;;5066635;28;20029;-82
2022/07/22 04:42:08;;;;;;;2.45;0.90;;;23.60;74.30;;;;;;5050795;28;20066;-79
2022/07/22 04:44:34;;;;;;;1.23;1.13;;;23.60;74.30;;;;;;5066722;28;20039;-84
2022/07/22 04:47:01;;;;;;;3.22;1.30;;;23.70;74.00;;;;;;5078405;28;20032;-83
2022/07/22 04:49:28;;;;;;;1.15;1.15;;;23.90;73.90;;;;;;5066834;28;20047;-83
2022/07/22 04:51:57;;;;;;;1.30;1.20;;;24.00;73.60;;;;;;5078625;28;20033;-84
2022/07/22 04:54:35;;;;;;;3.33;1.10;;;24.10;73.40;;;;;;5078044;28;20487;-85
2022/07/22 04:57:01;;;;;;;1.10;1.00;;;24.20;73.00;;;;;;5050051;28;20037;-85
2022/07/22 04:59:28;;;;;;;1.23;1.00;;;24.30;72.80;;;;;;5065750;28;20039;-85
2022/07/22 05:01:54;;;;;;;1.23;1.13;;;24.40;72.50;;;;;;5076439;28;20139;-85
2022/07/22 05:04:23;;;;;;;2.92;1.05;;;24.50;72.20;;;;;;5061235;28;20044;-85
2022/07/22 05:06:51;;;;;;;1.13;0.90;;;24.60;71.60;;;;;;5063811;28;20033;-82
2022/07/22 05:09:17;;;;;;;2.40;1.00;;;24.80;70.90;;;;;;5076048;28;20041;-84
2022/07/22 05:11:43;;;;;;;1.13;1.00;;;24.90;70.80;;;;;;5076647;28;20037;-84
2022/07/22 05:14:09;;;;;;;1.17;1.00;;;25.00;70.70;;;;;;5065267;28;20123;-81
2022/07/22 05:16:37;;;;;;;2.13;1.20;;;25.00;71.20;;;;;;5080276;28;20035;-85
2022/07/22 05:19:05;;;;;;;1.75;1.00;;;25.20;70.50;;;;;;5060025;28;20056;-84
2022/07/22 05:21:32;;;;;;;1.25;1.15;;;25.20;70.40;;;;;;5077186;28;20024;-86
2022/07/22 05:23:59;;;;;;;1.40;1.10;;;25.40;70.20;;;;;;5047640;28;20037;-84
2022/07/22 05:26:28;;;;;;;2.38;0.93;;;25.50;70.20;;;;;;5062325;28;20034;-83
2022/07/22 05:28:55;;;;;;;2.95;1.30;;;25.50;70.00;;;;;;5064059;28;20048;-83
2022/07/22 05:31:21;;;;;;;2.08;1.20;;;25.60;70.00;;;;;;5063615;28;20561;-88
2022/07/22 05:33:47;;;;;;;2.28;1.10;;;25.70;68.70;;;;;;5060693;28;20043;-86
2022/07/22 05:36:30;;;;;;;1.40;1.00;;;25.80;68.90;;;;;;5063667;28;20036;-84
2022/07/22 05:38:57;;;;;;;1.88;1.00;;;25.90;69.10;;;;;;5059110;28;20399;-86
2022/07/22 05:41:23;;;;;;;2.13;1.05;;;26.00;68.20;;;;;;5048251;28;20036;-84
2022/07/22 05:43:51;;;;;;;2.35;1.00;;;26.10;68.20;;;;;;5047352;28;20024;-77
2022/07/22 05:46:18;;;;;;;1.92;1.20;;;26.10;67.90;;;;;;5075466;28;20407;-78
2022/07/22 05:48:44;;;;;;;3.60;1.10;;;26.20;67.80;;;;;;5060330;28;20090;-78
2022/07/22 05:51:14;;;;;;;1.33;1.20;;;26.20;67.10;;;;;;5063603;28;20502;-78
2022/07/22 05:53:41;;;;;;;2.75;1.25;;;26.20;67.20;;;;;;5063417;28;20849;-78
2022/07/22 05:56:08;;;;;;;1.88;1.00;;;26.30;67.20;;;;;;5063182;28;20468;-78
2022/07/22 05:58:35;;;;;;;3.00;1.25;;;26.30;67.30;;;;;;5061576;28;20041;-78
2022/07/22 06:01:01;;;;;;;1.13;1.00;;;26.40;66.80;;;;;;5060782;28;20448;-79
2022/07/22 06:03:27;;;;;;;1.15;1.15;;;26.50;66.70;;;;;;5061538;28;20048;-80
2022/07/22 06:05:53;;;;;;;1.10;1.00;;;26.60;66.30;;;;;;5048605;28;20041;-79
2022/07/22 06:08:19;;;;;;;3.17;1.13;;;26.70;66.30;;;;;;5063804;28;20073;-80
2022/07/22 06:10:48;;;;;;;1.02;1.00;;;26.80;66.00;;;;;;5063311;28;20052;-79
2022/07/22 06:13:15;;;;;;;1.30;1.10;;;26.80;66.00;;;;;;5075351;28;20037;-79
2022/07/22 06:15:42;;;;;;;2.10;1.23;;;26.80;65.40;;;;;;5074327;28;21221;-79
2022/07/22 06:18:08;;;;;;;1.45;1.10;;;26.80;64.70;;;;;;5080284;28;20142;-80
2022/07/22 06:20:34;;;;;;;1.00;0.93;;;26.80;64.80;;;;;;5076520;28;20472;-79
2022/07/22 06:23:01;;;;;;;3.05;1.38;;;26.90;64.50;;;;;;5069206;28;20078;-79
2022/07/22 06:25:27;;;;;;;1.50;1.10;;;26.90;64.00;;;;;;5063617;28;20043;-88
2022/07/22 06:27:53;;;;;;;1.20;1.00;;;26.90;63.80;;;;;;5064823;28;20159;-85
2022/07/22 06:30:20;;;;;;;5.05;1.30;;;26.90;63.70;;;;;;5058102;28;20540;-84
2022/07/22 06:32:46;;;;;;;2.63;1.00;;;26.90;64.40;;;;;;5049565;28;20039;-85
2022/07/22 06:35:12;;;;;;;1.40;0.95;;;26.90;64.30;;;;;;5075481;28;20029;-84
2022/07/22 06:37:38;;;;;;;3.22;0.90;;;27.00;63.80;;;;;;5047660;28;20115;-83
2022/07/22 06:40:05;;;;;;;2.42;1.00;;;27.00;64.20;;;;;;5065204;28;20124;-82
2022/07/22 06:43:00;;;;;;;;;;;27.00;64.00;;;;;;5067050;28;20036;-84
2022/07/22 06:45:44;;;;;;;3.83;1.02;;;27.10;63.50;;;;;;5051388;28;19926;-83
2022/07/22 06:48:21;;;;;;;3.30;1.10;;;27.10;63.80;;;;;;5063138;28;20037;-84
2022/07/22 06:50:48;;;;;;;1.00;1.00;;;27.10;63.40;;;;;;5029898;28;20029;-86
2022/07/22 06:53:16;;;;;;;3.33;1.00;;;27.20;63.80;;;;;;5035623;28;20033;-81
2022/07/22 06:55:43;;;;;;;4.88;1.52;;;27.20;63.90;;;;;;5053959;28;20035;-87
2022/07/22 06:58:11;;;;;;;3.65;1.35;;;27.30;62.80;;;;;;5053803;28;20037;-89
2022/07/22 07:00:37;;;;;;;3.70;1.40;;;27.20;62.40;;;;;;5036670;28;20124;-89
2022/07/22 07:03:22;;;;;;;1.40;1.00;;;27.30;63.20;;;;;;5090096;28;20093;-93
2022/07/22 07:05:50;;;;;;;3.65;1.42;;;27.30;63.00;;;;;;5050385;28;20055;-91
2022/07/22 07:08:17;;;;;;;3.22;1.25;;;27.30;63.20;;;;;;5049940;28;20039;-91
2022/07/22 07:10:43;;;;;;;1.17;1.08;;;27.30;62.90;;;;;;5050613;28;20036;-91
2022/07/22 07:13:13;;;;;;;1.02;0.93;;;27.20;62.40;;;;;;5049396;28;20029;-92
2022/07/22 07:15:43;;;;;;;1.85;1.20;;;27.20;62.60;;;;;;5048595;28;20102;-85
2022/07/22 07:18:10;;;;;;;1.63;1.17;;;27.20;62.40;;;;;;5050525;28;20056;-89
2022/07/22 07:20:37;;;;;;;2.45;1.02;;;27.20;62.20;;;;;;5031966;28;20052;-84
2022/07/22 07:23:05;;;;;;;1.83;0.95;;;27.20;61.80;;;;;;5048096;28;20029;-79
2022/07/22 07:25:35;;;;;;;6.75;1.27;;;27.20;62.00;;;;;;5063496;28;20418;-80
2022/07/22 07:28:01;;;;;;;2.63;0.80;;;27.20;62.80;;;;;;5074165;28;20132;-77
2022/07/22 07:31:03;;;;;;;2.75;0.90;;;27.20;62.60;;;;;;5060198;28;20041;-86
2022/07/22 07:33:29;;;;;;;2.55;1.20;;;27.20;62.30;;;;;;5031593;28;20163;-87
2022/07/22 07:35:56;;;;;;;3.20;1.15;;;27.30;62.10;;;;;;5047396;28;20036;-82
2022/07/22 07:38:37;;;;;;;7.75;2.60;;;27.30;61.90;;;;;;5047899;28;20486;-80
2022/07/22 07:41:07;;;;;;;2.67;1.70;;;27.30;62.00;;;;;;5074856;28;20036;-80
2022/07/22 07:43:33;;;;;;;13.43;3.83;;;27.20;62.30;;;;;;5047694;28;20044;-77
2022/07/22 07:46:02;;;;;;;8.85;2.15;;;27.10;61.80;;;;;;5046754;28;20357;-76
2022/07/22 07:48:28;;;;;;;8.75;3.00;;;26.90;62.00;;;;;;5047426;28;20383;-76
2022/07/22 07:50:55;;;;;;;3.78;1.70;;;26.80;61.90;;;;;;5063605;28;20090;-78
2022/07/22 07:53:21;;;;;;;6.15;1.50;;;26.60;61.40;;;;;;5074983;28;20511;-79
2022/07/22 07:55:47;;;;;;;2.50;1.35;;;26.40;61.60;;;;;;5064094;28;20074;-81
2022/07/22 07:58:13;;;;;;;1.98;0.90;;;26.40;62.70;;;;;;5045846;28;20037;-81
2022/07/22 08:01:38;;;;;;;2.92;1.20;;;26.40;62.20;;;;;;5021900;28;20121;-83
2022/07/22 08:04:04;;;;;;;2.47;1.25;;;26.40;61.90;;;;;;5012754;28;20036;-80
2022/07/22 08:06:30;;;;;;;1.83;1.10;;;26.30;61.60;;;;;;5011007;28;20043;-82
2022/07/22 08:08:56;;;;;;;1.48;1.15;;;26.20;61.90;;;;;;5014057;28;20160;-81
2022/07/22 08:11:30;;;;;;;4.03;1.20;;;26.10;62.00;;;;;;4995762;28;20452;-79
2022/07/22 08:14:15;;;;;;;1.88;1.20;;;26.10;62.50;;;;;;5012713;28;20033;-81
2022/07/22 08:16:56;;;;;;;2.10;1.40;;;26.00;62.70;;;;;;4999038;28;20064;-81
2022/07/22 08:19:22;;;;;;;2.05;1.13;;;26.00;62.50;;;;;;5013133;28;20038;-84
2022/07/22 08:21:48;;;;;;;1.70;1.10;;;26.00;62.40;;;;;;5004592;28;20191;-84
2022/07/22 08:24:33;;;;;;;1.92;0.98;;;26.00;62.30;;;;;;5027842;28;20161;-84
2022/07/22 08:27:02;;;;;;;1.15;1.02;;;26.00;62.30;;;;;;5000837;28;20048;-84
2022/07/22 08:29:28;;;;;;;1.73;1.13;;;26.00;62.30;;;;;;5012149;28;20112;-83
2022/07/22 08:31:54;;;;;;;2.78;1.20;;;25.90;61.70;;;;;;5004771;28;20077;-83
2022/07/22 08:34:21;;;;;;;2.67;0.90;;;25.80;62.10;;;;;;5028523;28;20030;-83
2022/07/22 08:36:47;;;;;;;4.22;1.10;;;25.70;62.40;;;;;;4994780;28;20044;-83
2022/07/22 08:39:13;;;;;;;1.65;1.00;;;25.70;62.50;;;;;;4978224;28;21159;-84
2022/07/22 08:41:40;;;;;;;1.90;1.20;;;25.70;62.30;;;;;;4996840;28;20045;-84
2022/07/22 08:44:09;;;;;;;0.90;0.90;;;25.60;62.40;;;;;;5011859;28;20040;-84
2022/07/22 08:46:35;;;;;;;2.28;1.27;;;25.60;62.80;;;;;;5012237;28;20551;-84
2022/07/22 08:49:16;;;;;;;3.42;1.10;;;25.60;63.00;;;;;;5025361;28;20476;-84
2022/07/22 08:51:56;;;;;;;2.80;1.00;;;25.60;62.60;;;;;;4992225;28;20060;-83
2022/07/22 08:54:24;;;;;;;2.63;0.88;;;25.60;61.90;;;;;;4986365;28;20485;-83
2022/07/22 08:56:52;;;;;;;0.90;0.90;;;25.60;61.80;;;;;;5010302;28;21402;-82
2022/07/22 08:59:19;;;;;;;3.08;1.10;;;25.50;61.90;;;;;;4984223;28;20025;-82
2022/07/22 09:02:08;;;;;;;0.95;0.88;;;25.50;61.80;;;;;;4980487;28;20026;-82
2022/07/22 09:04:53;;;;;;;1.45;1.08;;;25.50;62.10;;;;;;5010754;28;20030;-83
2022/07/22 09:07:40;;;;;;;1.20;1.00;;;25.50;62.80;;;;;;5009828;28;20038;-83
2022/07/22 09:10:15;;;;;;;1.83;1.05;;;25.40;62.20;;;;;;5027410;28;20041;-82
2022/07/22 09:13:15;;;;;;;1.10;1.00;;;25.40;62.50;;;;;;5001320;28;20451;-82
2022/07/22 09:15:58;;;;;;;2.58;1.50;;;25.30;62.80;;;;;;5017522;28;20029;-83
2022/07/22 09:19:03;;;;;;;1.83;1.00;;;25.30;62.30;;;;;;5018360;28;20049;-82
2022/07/22 09:21:45;;;;;;;1.15;1.10;;;25.30;62.70;;;;;;5017549;28;20109;-83
2022/07/22 09:24:32;;;;;;;2.95;1.20;;;25.20;63.60;;;;;;5034161;28;20072;-83
2022/07/22 09:27:26;;;;;;;3.05;1.08;;;25.30;63.10;;;;;;5013155;28;20120;-83
2022/07/22 09:30:17;;;;;;;2.58;1.10;;;25.30;63.20;;;;;;5019668;28;20030;-82
2022/07/22 09:32:52;;;;;;;5.88;1.50;;;25.30;64.20;;;;;;5017497;28;20061;-82
2022/07/22 09:35:25;;;;;;;2.80;1.17;;;25.30;63.10;;;;;;5034951;28;20415;-82
2022/07/22 09:37:59;;;;;;;2.47;1.33;;;25.30;63.00;;;;;;5004361;28;20449;-83
2022/07/22 09:40:28;;;;;;;2.75;1.10;;;25.30;62.90;;;;;;5003462;28;20156;-83
2022/07/22 09:42:59;;;;;;;2.15;1.05;;;25.20;62.90;;;;;;5020860;28;20555;-83
2022/07/22 09:45:27;;;;;;;1.33;1.15;;;25.20;63.10;;;;;;5007989;28;20026;-83
2022/07/22 09:47:56;;;;;;;3.60;1.08;;;25.20;62.80;;;;;;5003636;28;20033;-82
2022/07/22 09:50:51;;;;;;;;;;;25.20;62.00;;;;;;5022347;28;20038;-82
2022/07/22 09:53:30;;;;;;;2.10;1.13;;;25.20;62.40;;;;;;5020989;28;19913;-85
2022/07/22 09:56:08;;;;;;;1.30;1.08;;;25.20;62.40;;;;;;5012157;28;20033;-84
2022/07/22 09:58:35;;;;;;;2.72;1.10;;;25.10;62.20;;;;;;5020509;28;20084;-84
2022/07/22 10:01:07;;;;;;;1.65;0.88;;;25.10;61.70;;;;;;5004564;28;20400;-83
2022/07/22 10:03:36;;;;;;;2.20;1.17;;;25.10;61.90;;;;;;5034222;28;20080;-83
2022/07/22 10:06:05;;;;;;;3.30;1.20;;;25.10;62.10;;;;;;5000390;28;20479;-84
2022/07/22 10:08:33;;;;;;;0.85;0.80;;;25.10;61.80;;;;;;5002307;28;20384;-83
2022/07/22 10:11:04;;;;;;;1.35;1.17;;;25.10;61.40;;;;;;5010017;28;20029;-83
2022/07/22 10:13:31;;;;;;;1.25;1.13;;;25.10;61.20;;;;;;5003968;28;20058;-82
2022/07/22 10:15:58;;;;;;;2.38;1.20;;;25.20;61.30;;;;;;4985285;28;20504;-83
2022/07/22 10:18:25;;;;;;;1.20;1.10;;;25.10;61.20;;;;;;5019960;28;20378;-84
2022/07/22 10:21:08;;;;;;;4.93;1.35;;;25.20;61.40;;;;;;5016295;28;20280;-84
2022/07/22 10:23:34;;;;;;;2.22;1.30;;;25.20;61.40;;;;;;5015438;28;20210;-84
2022/07/22 10:26:03;;;;;;;1.83;1.10;;;25.20;61.70;;;;;;5001064;28;20426;-84
2022/07/22 10:28:37;;;;;;;1.55;0.90;;;25.10;62.20;;;;;;5000526;28;20512;-84
2022/07/22 10:31:23;;;;;;;2.47;1.13;;;25.20;62.60;;;;;;5001277;28;20041;-84
2022/07/22 10:33:54;;;;;;;1.67;1.13;;;25.20;61.80;;;;;;5016847;28;20129;-84
2022/07/22 10:36:34;;;;;;;1.73;1.10;;;25.20;61.60;;;;;;5017534;28;20163;-84
2022/07/22 10:39:07;;;;;;;1.30;1.20;;;25.10;61.60;;;;;;4999142;28;20217;-84
2022/07/22 10:41:44;;;;;;;2.70;0.90;;;25.10;62.30;;;;;;5016612;28;20488;-85
2022/07/22 10:44:11;;;;;;;3.05;1.35;;;25.10;62.40;;;;;;5020035;28;20080;-83
2022/07/22 10:46:55;;;;;;;3.72;1.15;;;25.10;61.60;;;;;;5020381;28;20029;-84
2022/07/22 10:49:26;;;;;;;2.00;1.30;;;25.10;63.10;;;;;;4998835;28;20033;-84
2022/07/22 10:52:16;;;;;;;1.38;1.17;;;25.10;62.30;;;;;;5015558;28;20116;-84
2022/07/22 10:55:20;;;;;;;1.40;1.27;;;25.10;61.80;;;;;;5016043;28;20030;-84
2022/07/22 10:57:48;;;;;;;3.90;1.25;;;25.10;61.40;;;;;;5015853;28;20033;-84
2022/07/22 11:00:14;;;;;;;1.95;1.10;;;25.00;61.90;;;;;;5014638;28;20058;-84
2022/07/22 11:02:40;;;;;;;1.50;0.98;;;25.00;63.30;;;;;;5032392;28;20041;-84
2022/07/22 11:05:08;;;;;;;1.98;1.10;;;25.00;62.70;;;;;;5031567;28;20140;-84
2022/07/22 11:07:44;;;;;;;2.25;1.30;;;25.10;62.60;;;;;;5014941;28;20187;-83
2022/07/22 11:10:15;;;;;;;1.95;1.10;;;25.10;62.40;;;;;;5015414;28;20113;-84
2022/07/22 11:12:41;;;;;;;1.48;1.02;;;25.10;62.30;;;;;;5016912;28;20029;-84
2022/07/22 11:15:08;;;;;;;2.00;1.10;;;25.10;61.90;;;;;;5014740;28;20034;-84
2022/07/22 11:17:35;;;;;;;2.63;1.20;;;25.10;61.50;;;;;;5015067;28;20041;-84
2022/07/22 11:20:05;;;;;;;2.03;1.00;;;25.10;61.10;;;;;;5014867;28;20125;-84
2022/07/22 11:22:31;;;;;;;1.33;1.00;;;25.10;60.90;;;;;;5015665;28;20129;-83
2022/07/22 11:24:59;;;;;;;1.23;0.85;;;25.10;60.80;;;;;;4999017;28;20036;-84
2022/07/22 11:27:25;;;;;;;3.05;1.02;;;25.10;60.80;;;;;;5003812;28;20046;-84
2022/07/22 11:29:53;;;;;;;1.38;0.98;;;25.10;60.10;;;;;;5017871;28;20070;-84
2022/07/22 11:32:21;;;;;;;1.23;1.13;;;25.10;60.10;;;;;;5022798;28;20053;-84
2022/07/22 11:34:47;;;;;;;1.65;1.17;;;25.10;60.50;;;;;;5022079;28;20044;-84
2022/07/22 11:37:15;;;;;;;2.45;0.90;;;25.10;60.90;;;;;;5019893;28;20041;-83
2022/07/22 11:39:41;;;;;;;2.08;1.20;;;25.10;61.90;;;;;;4997781;28;20049;-84
2022/07/22 11:42:07;;;;;;;2.30;1.15;;;25.00;60.90;;;;;;5015768;28;20029;-84
2022/07/22 11:44:35;;;;;;;3.75;1.20;;;25.00;60.90;;;;;;5017236;28;20427;-84
2022/07/22 11:47:03;;;;;;;1.65;1.27;;;25.00;61.20;;;;;;5018373;28;20493;-84
2022/07/22 11:49:33;;;;;;;2.75;1.20;;;25.10;60.40;;;;;;5015301;28;20080;-84
2022/07/22 11:52:00;;;;;;;2.35;1.30;;;25.10;60.10;;;;;;5030265;28;20030;-84
2022/07/22 11:54:26;;;;;;;1.45;1.33;;;25.00;59.40;;;;;;5017259;28;20038;-85
2022/07/22 11:56:53;;;;;;;2.35;1.30;;;25.10;59.70;;;;;;5013624;28;20524;-84
2022/07/22 11:59:19;;;;;;;3.40;1.40;;;25.10;59.70;;;;;;5016558;28;20040;-84
2022/07/22 12:01:46;;;;;;;1.10;0.90;;;25.00;59.80;;;;;;5014261;28;20053;-84
2022/07/22 12:04:24;;;;;;;2.80;1.40;;;25.10;60.00;;;;;;5014684;28;20088;-84
2022/07/22 12:06:53;;;;;;;3.53;1.17;;;25.10;60.00;;;;;;5000417;28;20037;-84
2022/07/22 12:09:19;;;;;;;2.35;1.10;;;25.10;60.00;;;;;;5016295;28;20039;-85
2022/07/22 12:11:48;;;;;;;6.53;1.30;;;25.10;60.00;;;;;;4998934;28;20034;-85
2022/07/22 12:14:19;;;;;;;3.13;1.25;;;25.10;60.00;;;;;;5015673;28;20026;-84
2022/07/22 12:17:02;;;;;;;1.90;1.25;;;25.10;60.00;;;;;;5014873;28;20038;-84
2022/07/22 12:19:31;;;;;;;1.25;1.10;;;25.10;60.20;;;;;;5014701;28;20403;-84
2022/07/22 12:22:13;;;;;;;2.75;1.60;;;25.10;60.20;;;;;;5016077;28;20124;-83
2022/07/22 12:24:41;;;;;;;2.42;1.60;;;25.10;60.10;;;;;;5016585;28;20041;-84
2022/07/22 12:27:09;;;;;;;2.53;1.40;;;25.10;60.40;;;;;;5016587;28;20128;-84
2022/07/22 12:29:38;;;;;;;1.30;1.20;;;25.00;60.60;;;;;;5014934;28;20025;-84
2022/07/22 12:32:24;;;;;;;2.50;1.50;;;25.00;60.90;;;;;;5016182;28;20033;-83
2022/07/22 12:34:58;;;;;;;3.45;1.20;;;25.00;61.00;;;;;;5014691;28;20030;-84
2022/07/22 12:37:29;;;;;;;1.38;1.20;;;25.00;61.10;;;;;;5031072;28;20059;-84
2022/07/22 12:40:08;;;;;;;2.53;1.10;;;25.10;61.10;;;;;;5015423;28;20033;-83
2022/07/22 12:42:58;;;;;;;1.63;1.30;;;25.10;61.20;;;;;;5014426;28;20032;-85
2022/07/22 12:45:26;;;;;;;2.20;1.20;;;25.00;61.00;;;;;;5014966;28;20041;-82
2022/07/22 12:48:03;;;;;;;3.78;1.38;;;25.10;60.70;;;;;;5017569;28;20030;-83
2022/07/22 12:50:39;;;;;;;1.80;1.35;;;25.10;61.10;;;;;;5020126;28;20037;-83
2022/07/22 12:53:05;;;;;;;1.38;1.10;;;25.10;60.80;;;;;;5019483;28;20087;-83
2022/07/22 12:55:36;;;;;;;3.63;1.30;;;25.20;60.90;;;;;;5019080;28;20366;-83
2022/07/22 12:58:04;;;;;;;2.95;1.30;;;25.10;62.90;;;;;;5017377;28;20091;-82
2022/07/22 13:00:34;;;;;;;1.50;1.17;;;25.10;63.00;;;;;;5000265;28;20459;-84
2022/07/22 13:03:00;;;;;;;2.53;1.17;;;25.10;61.40;;;;;;5001195;28;20088;-83